Basile, Louisiana
Current Conditions -  °F | °C
As of 10:15 PM on Monday 22 Dec 2014 (Local Time) from K3R7 Reporting Station
Haze Haze  
Wind Chill: 64°   Ceiling: 400
Heat Index: 64°   Visibility: 5mi
Dew Point: 64°   Wind: 3mph
Humidity: 99%   Direction: 220°SW
Pressure: 29.7"   Gusts: NA
Location:  30.49°N, 92.6°W
Report Text: K3R7 230415Z AUTO 22003KT 5SM BR OVC004 18/18 A2970 RMK AO2 T01780176
Loading
Personal Weather Stations






























Interactive Weather Map New forecast layout! Learn more

10-Day Weather Forecast

Advertisements
Track Severe Weather on mobile